Time;durP1;ratioP1;P1;durP2;ratioP2;P2;SDS_P1;SDS_P2;PMS_P1;PMS_P2;Temp;Humidity;BMP_temperature;BMP_pressure;BME280_temperature;BME280_humidity;BME280_pressure;Samples;Min_cycle;Max_cycle;Signal;HPM_P1;HPM_P2
2021/03/19 00:01:42;;;;;;;6.97;5.23;;;;;;;2.63;87.78;96135.75;5039820;28;21007;-85
2021/03/19 00:04:09;;;;;;;8.00;5.43;;;;;;;2.47;88.79;96139.19;5039341;28;20436;-85
2021/03/19 00:06:35;;;;;;;11.67;6.50;;;;;;;2.13;90.73;96131.31;5039630;28;20498;-84
2021/03/19 00:09:03;;;;;;;8.23;6.33;;;;;;;2.21;91.14;96125.50;5039493;28;20539;-86
2021/03/19 00:11:30;;;;;;;13.20;6.40;;;;;;;2.25;91.50;96125.97;5039549;28;20439;-85
2021/03/19 00:13:56;;;;;;;9.07;6.23;;;;;;;2.22;91.23;96124.31;5039237;28;20446;-85
2021/03/19 00:16:23;;;;;;;12.30;6.87;;;;;;;1.82;93.49;96122.94;5039036;28;20458;-85
2021/03/19 00:18:52;;;;;;;8.70;6.50;;;;;;;1.79;94.41;96123.91;5039240;28;20463;-83
2021/03/19 00:24:40;;;;;;;10.87;6.40;;;;;;;1.94;94.50;96119.78;5039870;28;20426;-83
2021/03/19 00:27:07;;;;;;;10.77;7.40;;;;;;;2.03;94.28;96121.47;5039769;28;20554;-84
2021/03/19 00:29:33;;;;;;;18.80;8.70;;;;;;;1.87;94.34;96109.66;5039409;28;20446;-83
2021/03/19 00:31:59;;;;;;;11.80;7.87;;;;;;;1.99;94.37;96115.66;5039428;28;20804;-83
2021/03/19 00:34:25;;;;;;;12.77;7.90;;;;;;;2.02;94.52;96112.75;5039405;28;20435;-83
2021/03/19 00:36:51;;;;;;;10.87;8.13;;;;;;;2.15;93.98;96110.28;5039002;28;21031;-85
2021/03/19 00:39:18;;;;;;;14.97;7.93;;;;;;;2.13;93.51;96112.69;5039025;28;20571;-84
2021/03/19 00:41:44;;;;;;;12.60;8.00;;;;;;;2.10;94.08;96111.03;5039002;28;20435;-84
2021/03/19 00:44:11;;;;;;;15.10;7.90;;;;;;;2.12;94.21;96108.59;5039596;28;20912;-84
2021/03/19 00:46:37;;;;;;;12.27;8.43;;;;;;;2.11;94.38;96112.47;5039456;28;20469;-84
2021/03/19 00:49:03;;;;;;;13.00;7.90;;;;;;;2.07;93.88;96114.66;5039547;28;20510;-85
2021/03/19 00:51:29;;;;;;;14.23;9.90;;;;;;;2.13;94.22;96107.38;5039298;28;20534;-84
2021/03/19 00:53:55;;;;;;;12.57;7.83;;;;;;;2.25;94.37;96105.41;5038836;28;20414;-84
2021/03/19 00:56:21;;;;;;;13.87;8.97;;;;;;;2.34;93.64;96107.06;5038613;28;20443;-84
2021/03/19 00:58:47;;;;;;;12.73;8.33;;;;;;;2.35;93.47;96109.22;5039255;28;20518;-85
2021/03/19 01:01:14;;;;;;;13.20;9.30;;;;;;;2.38;93.14;96105.56;5039067;28;20537;-84
2021/03/19 01:03:40;;;;;;;11.57;8.67;;;;;;;2.27;93.73;96100.31;5038951;28;20504;-84
2021/03/19 01:06:07;;;;;;;13.20;9.27;;;;;;;2.22;93.79;96105.66;5038853;28;20573;-85
2021/03/19 01:08:33;;;;;;;13.83;9.07;;;;;;;2.22;93.93;96105.66;5038774;28;20491;-84
2021/03/19 01:10:59;;;;;;;14.97;9.90;;;;;;;2.08;94.69;96097.50;5038387;28;20932;-84
2021/03/19 01:13:25;;;;;;;16.13;8.70;;;;;;;2.07;94.75;96098.69;5038893;28;20463;-84
2021/03/19 01:15:52;;;;;;;15.33;9.53;;;;;;;2.08;94.69;96100.16;5046312;28;20436;-84
2021/03/19 01:18:22;;;;;;;15.30;9.30;;;;;;;2.02;95.25;96096.06;5040414;28;20437;-84
2021/03/19 01:20:49;;;;;;;15.13;9.10;;;;;;;2.10;95.49;96091.66;5038498;28;20474;-84
2021/03/19 01:23:16;;;;;;;15.37;10.60;;;;;;;2.07;95.09;96089.97;5038725;28;20845;-84
2021/03/19 01:25:43;;;;;;;20.67;9.67;;;;;;;2.06;95.03;96091.94;5038785;28;20455;-84
2021/03/19 01:28:09;;;;;;;14.03;9.00;;;;;;;2.05;95.43;96085.16;5038303;28;20551;-84
2021/03/19 01:30:37;;;;;;;17.97;9.70;;;;;;;1.99;95.34;96089.78;5038257;28;20812;-86
2021/03/19 01:33:04;;;;;;;12.30;9.13;;;;;;;1.99;95.46;96081.81;5038041;28;21031;-84
2021/03/19 01:35:33;;;;;;;17.50;8.70;;;;;;;1.99;95.24;96083.75;5038301;28;20515;-84
2021/03/19 01:38:00;;;;;;;18.63;12.67;;;;;;;1.99;95.46;96084.47;5038177;28;20474;-85
2021/03/19 01:40:30;;;;;;;17.83;9.07;;;;;;;2.01;95.50;96082.03;5037596;28;20548;-85
2021/03/19 01:42:57;;;;;;;13.27;9.20;;;;;;;2.09;95.34;96082.25;5037999;28;20471;-85
2021/03/19 01:45:53;;;;;;;14.00;9.73;;;;;;;1.92;95.64;96082.31;5037852;28;20459;-85
2021/03/19 01:48:56;;;;;;;13.63;9.40;;;;;;;1.80;96.00;96075.56;5038974;28;20526;-84
2021/03/19 01:51:59;;;;;;;14.37;9.53;;;;;;;1.80;97.03;96067.59;5039103;28;20465;-84
2021/03/19 01:55:04;;;;;;;13.00;8.83;;;;;;;1.89;96.71;96071.91;5037882;28;20482;-84
2021/03/19 01:58:10;;;;;;;17.50;9.70;;;;;;;1.94;96.08;96069.22;5027957;28;20467;-84
2021/03/19 02:01:14;;;;;;;15.40;10.10;;;;;;;1.87;95.90;96069.75;5017959;28;20551;-85
2021/03/19 02:04:17;;;;;;;17.67;10.00;;;;;;;1.83;96.44;96055.25;5048281;28;20451;-84
2021/03/19 02:07:20;;;;;;;15.17;9.90;;;;;;;1.75;96.81;96056.97;5038028;28;20469;-85
2021/03/19 02:10:24;;;;;;;19.90;11.57;;;;;;;1.73;97.06;96056.72;5037063;28;20493;-85
2021/03/19 02:13:27;;;;;;;14.30;9.40;;;;;;;1.77;97.17;96054.56;5037868;28;20531;-85
2021/03/19 02:16:30;;;;;;;13.40;9.70;;;;;;;1.75;97.09;96049.00;5037727;28;20446;-86
2021/03/19 02:19:33;;;;;;;12.43;9.30;;;;;;;1.73;96.56;96041.50;5037370;28;20509;-85
2021/03/19 02:22:37;;;;;;;13.77;9.80;;;;;;;1.73;96.64;96041.50;5037492;28;20482;-83
2021/03/19 02:25:40;;;;;;;13.77;10.07;;;;;;;1.71;96.57;96037.88;5037440;28;20905;-84
2021/03/19 02:28:44;;;;;;;15.03;10.80;;;;;;;1.71;97.05;96038.63;5058153;28;20470;-84
2021/03/19 02:31:10;;;;;;;22.77;11.17;;;;;;;1.62;96.46;96046.88;5058228;28;20459;-85
2021/03/19 02:33:39;;;;;;;16.13;9.53;;;;;;;1.63;96.99;96052.91;5058443;28;20422;-85
2021/03/19 02:36:05;;;;;;;18.23;9.93;;;;;;;1.65;96.70;96053.13;5050031;28;20509;-83
2021/03/19 02:38:32;;;;;;;20.90;11.80;;;;;;;1.67;96.60;96054.09;5037135;28;20463;-84
2021/03/19 02:40:58;;;;;;;18.87;10.80;;;;;;;1.59;97.01;96056.53;5051489;28;20423;-84
2021/03/19 02:43:25;;;;;;;18.70;11.40;;;;;;;1.54;96.95;96053.88;5055719;28;20437;-84
2021/03/19 02:45:51;;;;;;;15.70;11.50;;;;;;;1.60;97.36;96050.00;5056276;28;20516;-83
2021/03/19 02:48:17;;;;;;;16.33;11.77;;;;;;;1.66;96.99;96052.63;5057447;28;20486;-84
2021/03/19 02:50:45;;;;;;;15.90;10.87;;;;;;;1.57;97.56;96056.28;5053150;28;20463;-85
2021/03/19 02:53:15;;;;;;;24.10;13.13;;;;;;;1.62;97.54;96052.19;5038219;28;20435;-84
2021/03/19 02:55:41;;;;;;;22.07;12.30;;;;;;;1.72;97.85;96055.31;5038270;28;20839;-84
2021/03/19 02:58:08;;;;;;;18.90;12.23;;;;;;;1.69;97.31;96050.97;5037308;28;20886;-85
2021/03/19 03:00:34;;;;;;;20.40;12.90;;;;;;;1.64;97.10;96049.75;5037423;28;20491;-85
2021/03/19 03:03:01;;;;;;;16.10;11.57;;;;;;;1.68;97.71;96050.22;5037102;28;20435;-85
2021/03/19 03:05:27;;;;;;;18.23;10.73;;;;;;;1.76;97.21;96045.13;5037450;28;20819;-84
2021/03/19 03:07:54;;;;;;;18.93;10.87;;;;;;;1.74;97.67;96032.31;5036747;28;20430;-85
2021/03/19 03:10:23;;;;;;;18.37;11.03;;;;;;;1.79;97.06;96033.50;5037292;28;20532;-84
2021/03/19 03:12:49;;;;;;;18.40;12.00;;;;;;;1.89;96.56;96037.34;5036674;28;20510;-84
2021/03/19 03:15:17;;;;;;;25.57;13.00;;;;;;;1.74;96.76;96034.97;5036836;28;20434;-85
2021/03/19 03:17:44;;;;;;;19.80;12.23;;;;;;;1.78;96.76;96035.47;5036847;28;20839;-85
2021/03/19 03:20:13;;;;;;;18.80;12.27;;;;;;;1.82;96.17;96038.56;5038447;28;20867;-84
2021/03/19 03:22:40;;;;;;;20.97;11.87;;;;;;;1.68;96.61;96041.53;5040476;28;20442;-84
2021/03/19 03:25:08;;;;;;;18.73;12.00;;;;;;;1.58;97.41;96035.75;5040867;28;20512;-84
2021/03/19 03:27:34;;;;;;;19.00;12.43;;;;;;;1.58;97.01;96044.47;5020267;28;20460;-84
2021/03/19 03:30:01;;;;;;;20.80;13.37;;;;;;;1.58;97.40;96041.06;5020640;28;21031;-84
2021/03/19 03:32:27;;;;;;;18.80;13.07;;;;;;;1.59;96.83;96032.63;5020533;28;20458;-84
2021/03/19 03:34:53;;;;;;;18.50;12.50;;;;;;;1.63;96.34;96035.72;5020405;28;20418;-84
2021/03/19 03:37:19;;;;;;;16.30;12.50;;;;;;;1.67;96.21;96037.41;5020667;28;20472;-84
2021/03/19 03:39:45;;;;;;;18.90;13.97;;;;;;;1.58;96.60;96041.06;5020996;28;20552;-85
2021/03/19 03:42:12;;;;;;;17.43;13.33;;;;;;;1.48;97.27;96037.94;5036322;28;20880;-84
2021/03/19 03:44:38;;;;;;;17.73;12.33;;;;;;;1.48;97.61;96037.22;5040255;28;20478;-86
2021/03/19 03:47:04;;;;;;;28.30;13.00;;;;;;;1.58;97.49;96033.09;5040035;28;20512;-85
2021/03/19 03:49:30;;;;;;;17.63;12.73;;;;;;;1.57;97.46;96028.97;5040142;28;20438;-85
2021/03/19 03:51:56;;;;;;;17.43;11.63;;;;;;;1.61;97.26;96032.84;5040581;28;20524;-85
2021/03/19 03:54:22;;;;;;;24.73;13.73;;;;;;;1.60;96.83;96038.63;5039915;28;20454;-85
2021/03/19 03:56:49;;;;;;;17.80;13.30;;;;;;;1.68;97.51;96039.59;5040825;28;20525;-84
2021/03/19 03:59:16;;;;;;;25.63;14.07;;;;;;;1.63;97.13;96036.97;5040706;28;20475;-84
2021/03/19 04:01:43;;;;;;;19.60;13.93;;;;;;;1.61;97.26;96034.78;5040031;28;20439;-84
2021/03/19 04:04:10;;;;;;;17.83;12.63;;;;;;;1.65;96.84;96034.53;5039819;28;20481;-84
2021/03/19 04:06:36;;;;;;;18.90;13.50;;;;;;;1.63;97.11;96042.97;5039757;28;20467;-85
2021/03/19 04:09:03;;;;;;;19.43;13.10;;;;;;;1.63;97.08;96037.66;5039825;28;20835;-84
2021/03/19 04:11:29;;;;;;;20.63;12.47;;;;;;;1.69;96.91;96040.31;5039879;28;20539;-83
2021/03/19 04:13:55;;;;;;;21.03;14.50;;;;;;;1.72;96.76;96039.34;5039845;28;20447;-84
2021/03/19 04:16:22;;;;;;;22.93;14.07;;;;;;;1.72;96.63;96034.75;5039432;28;20443;-84
2021/03/19 04:18:49;;;;;;;20.00;13.33;;;;;;;1.66;97.00;96035.97;5039678;28;20526;-84
2021/03/19 04:21:15;;;;;;;22.57;15.93;;;;;;;1.71;96.81;96037.88;5039278;28;20526;-84
2021/03/19 04:23:43;;;;;;;24.53;13.50;;;;;;;1.73;97.15;96038.84;5039412;28;20451;-85
2021/03/19 04:26:20;;;;;;;20.47;13.90;;;;;;;1.76;96.69;96035.22;5039474;28;20981;-85
2021/03/19 04:28:47;;;;;;;19.57;13.70;;;;;;;1.78;96.48;96032.81;5039310;28;20466;-85
2021/03/19 04:31:13;;;;;;;19.80;13.60;;;;;;;1.86;96.92;96036.38;5038383;28;20443;-85
2021/03/19 04:33:40;;;;;;;27.33;14.97;;;;;;;1.75;96.00;96028.47;5039524;28;20449;-85
2021/03/19 04:36:30;;;;;;;24.20;15.23;;;;;;;1.81;96.43;96036.41;5039126;28;20478;-85
2021/03/19 04:38:59;;;;;;;18.50;13.17;;;;;;;1.74;96.61;96036.91;5037017;28;20832;-85
2021/03/19 04:41:26;;;;;;;22.10;14.70;;;;;;;1.73;96.05;96033.53;5039950;28;20443;-85
2021/03/19 04:43:53;;;;;;;23.50;15.80;;;;;;;1.75;96.01;96030.41;5038829;28;20508;-84
2021/03/19 04:46:19;;;;;;;25.20;15.10;;;;;;;1.78;96.15;96034.72;5039048;28;20514;-86
2021/03/19 04:48:46;;;;;;;20.90;13.80;;;;;;;1.79;96.41;96038.81;5039157;28;20447;-85
2021/03/19 04:51:12;;;;;;;22.67;14.27;;;;;;;1.71;96.23;96033.31;5039250;28;20469;-84
2021/03/19 04:53:38;;;;;;;22.60;14.93;;;;;;;1.69;96.32;96040.31;5038825;28;20955;-85
2021/03/19 04:56:04;;;;;;;21.40;15.60;;;;;;;1.71;96.67;96040.56;5039427;28;20443;-85
2021/03/19 04:58:31;;;;;;;20.80;14.30;;;;;;;1.76;96.75;96045.13;5039118;28;20542;-85
2021/03/19 05:00:57;;;;;;;27.70;16.30;;;;;;;1.72;96.94;96044.66;5039610;28;20548;-85
2021/03/19 05:03:23;;;;;;;18.57;13.27;;;;;;;1.82;96.56;96043.16;5039207;28;20496;-84
2021/03/19 05:05:50;;;;;;;22.73;14.80;;;;;;;1.80;96.55;96040.28;5039752;28;20531;-84
2021/03/19 05:08:16;;;;;;;26.43;16.67;;;;;;;1.79;96.67;96046.78;5039745;28;20451;-85
2021/03/19 05:10:42;;;;;;;21.70;14.17;;;;;;;1.81;96.43;96047.78;5039819;28;20440;-85
2021/03/19 05:13:09;;;;;;;27.73;14.97;;;;;;;1.75;96.38;96044.41;5040169;28;20447;-85
2021/03/19 05:15:38;;;;;;;26.43;16.07;;;;;;;1.92;96.44;96042.41;5039877;28;20435;-86
2021/03/19 05:18:05;;;;;;;22.67;15.83;;;;;;;1.90;96.29;96041.47;5040065;28;20495;-85
2021/03/19 05:20:32;;;;;;;21.40;15.60;;;;;;;1.90;95.92;96039.53;5040588;28;21110;-86
2021/03/19 05:22:59;;;;;;;21.40;14.17;;;;;;;1.96;95.58;96048.19;5039497;28;20443;-83
2021/03/19 05:25:28;;;;;;;21.73;13.00;;;;;;;1.94;95.69;96049.91;5039619;28;20868;-83
2021/03/19 05:27:54;;;;;;;20.40;14.47;;;;;;;1.98;95.71;96048.44;5040174;28;20952;-84
2021/03/19 05:30:23;;;;;;;23.37;13.57;;;;;;;2.08;95.59;96054.91;5040244;28;20500;-84
2021/03/19 05:32:49;;;;;;;21.17;14.63;;;;;;;2.08;95.05;96041.63;5040041;28;20492;-84
2021/03/19 05:35:19;;;;;;;23.13;15.43;;;;;;;2.16;94.67;96050.50;5040146;28;20522;-85
2021/03/19 05:37:49;;;;;;;29.03;15.23;;;;;;;2.22;94.58;96049.78;5039980;28;20889;-85
2021/03/19 05:40:29;;;;;;;24.97;15.40;;;;;;;2.14;93.88;96042.31;5039564;28;20479;-85
2021/03/19 05:42:55;;;;;;;24.67;14.80;;;;;;;2.02;94.30;96046.25;5039843;28;20439;-84
2021/03/19 05:45:25;;;;;;;24.60;14.80;;;;;;;1.91;94.74;96046.28;5039701;28;20455;-84
2021/03/19 05:47:52;;;;;;;25.17;15.60;;;;;;;1.98;95.46;96045.75;5039383;28;20967;-85
2021/03/19 05:50:26;;;;;;;26.27;14.97;;;;;;;2.00;95.31;96053.28;5039137;28;20438;-83
2021/03/19 05:52:54;;;;;;;23.50;14.10;;;;;;;2.06;95.08;96054.69;5039756;28;20414;-85
2021/03/19 05:55:24;;;;;;;24.33;14.80;;;;;;;2.05;95.06;96061.22;5039138;28;20432;-84
2021/03/19 05:57:57;;;;;;;23.23;16.23;;;;;;;2.10;95.38;96063.13;5038885;28;20530;-83
2021/03/19 06:00:25;;;;;;;20.47;14.27;;;;;;;2.20;94.54;96068.16;5039903;28;20507;-84
2021/03/19 06:02:52;;;;;;;24.07;15.40;;;;;;;2.31;94.19;96073.44;5038699;28;20495;-84
2021/03/19 06:05:20;;;;;;;26.67;15.80;;;;;;;2.01;93.76;96081.31;5039247;28;20471;-85
2021/03/19 06:07:50;;;;;;;23.07;15.10;;;;;;;1.90;95.05;96082.06;5038834;28;20945;-85
2021/03/19 06:10:30;;;;;;;25.60;15.87;;;;;;;1.81;95.68;96085.00;5040344;28;20454;-84
2021/03/19 06:13:11;;;;;;;27.43;14.90;;;;;;;1.87;94.85;96088.38;5039689;28;20431;-84
2021/03/19 06:15:39;;;;;;;22.13;14.27;;;;;;;2.00;94.39;96080.59;5039351;28;20462;-85
2021/03/19 06:18:15;;;;;;;20.73;13.40;;;;;;;1.89;94.58;96085.22;5039941;28;20463;-85
2021/03/19 06:20:51;;;;;;;19.43;13.13;;;;;;;1.83;94.52;96089.81;5039874;28;20478;-85
2021/03/19 06:23:20;;;;;;;16.73;12.30;;;;;;;1.60;95.63;96092.53;5040067;28;20514;-85
2021/03/19 06:26:00;;;;;;;20.30;12.80;;;;;;;1.64;96.23;96092.28;5039695;28;20445;-85
2021/03/19 06:28:29;;;;;;;15.23;12.83;;;;;;;1.73;95.59;96093.97;5040709;28;20469;-85
2021/03/19 06:31:14;;;;;;;18.10;12.80;;;;;;;1.79;96.08;96100.72;5039111;28;20448;-85
2021/03/19 06:33:40;;;;;;;23.73;13.73;;;;;;;1.84;96.36;96099.25;5040558;28;20424;-85
2021/03/19 06:36:13;;;;;;;20.07;13.80;;;;;;;1.68;97.35;96106.06;5039701;28;20440;-85
2021/03/19 06:38:41;;;;;;;21.53;14.90;;;;;;;1.86;97.61;96108.19;5039711;28;20455;-85
2021/03/19 06:41:25;;;;;;;28.33;16.50;;;;;;;2.06;97.73;96107.91;5039946;28;20997;-85
2021/03/19 06:43:53;;;;;;;22.53;14.33;;;;;;;2.21;97.80;96110.25;5039170;28;20447;-86
2021/03/19 06:46:25;;;;;;;24.37;15.27;;;;;;;2.15;96.79;96104.97;5039667;28;20441;-85
2021/03/19 06:49:03;;;;;;;24.93;16.10;;;;;;;1.96;97.08;96106.72;5041510;28;20420;-84
2021/03/19 06:51:33;;;;;;;24.60;16.30;;;;;;;1.90;96.95;96102.63;5047391;28;20427;-84
2021/03/19 06:54:03;;;;;;;29.23;17.37;;;;;;;1.80;97.72;96104.09;5050430;28;20439;-84
2021/03/19 06:56:30;;;;;;;28.13;16.90;;;;;;;1.92;98.40;96100.19;5051334;28;20443;-85
2021/03/19 06:58:57;;;;;;;23.80;16.03;;;;;;;2.06;98.35;96107.19;5045742;28;20518;-88
2021/03/19 07:01:33;;;;;;;25.97;17.87;;;;;;;2.03;98.22;96106.22;5044479;28;20577;-86
2021/03/19 07:04:33;;;;;;;25.67;16.47;;;;;;;1.98;98.81;96109.63;5044036;28;20492;-87
2021/03/19 07:07:22;;;;;;;23.03;15.90;;;;;;;1.99;98.90;96100.44;5044074;28;20487;-88
2021/03/19 07:09:59;;;;;;;24.50;16.80;;;;;;;1.80;99.29;96102.16;5044846;28;20928;-86
2021/03/19 07:12:41;;;;;;;30.10;17.90;;;;;;;1.66;100.00;96105.81;5045325;28;20518;-89
2021/03/19 07:15:22;;;;;;;28.10;17.50;;;;;;;1.87;100.00;96104.34;5044310;28;20434;-87
2021/03/19 07:17:54;;;;;;;32.60;19.17;;;;;;;1.66;100.00;96110.44;5043132;28;20880;-88
2021/03/19 07:20:55;;;;;;;34.23;22.20;;;;;;;1.70;100.00;96106.28;5043852;28;20471;-86
2021/03/19 07:23:25;;;;;;;29.63;19.90;;;;;;;1.91;100.00;96110.09;5046371;28;20588;-85
2021/03/19 07:26:02;;;;;;;30.87;19.97;;;;;;;1.92;100.00;96108.91;5043140;28;20538;-85
2021/03/19 07:29:00;;;;;;;33.07;19.00;;;;;;;2.05;99.62;96119.75;5043992;28;21018;-87
2021/03/19 07:31:44;;;;;;;31.97;20.57;;;;;;;2.06;99.82;96121.22;5046731;28;20466;-91
2021/03/19 07:34:29;;;;;;;29.03;19.10;;;;;;;2.07;99.45;96124.56;5047885;28;20419;-91
2021/03/19 07:37:05;;;;;;;32.33;19.83;;;;;;;2.05;99.54;96127.00;5049824;28;20467;-92
2021/03/19 07:40:00;;;;;;;29.93;20.00;;;;;;;2.00;99.14;96127.75;5049517;28;20485;-92
2021/03/19 07:43:09;;;;;;;32.43;20.03;;;;;;;1.97;99.72;96134.06;5048389;28;20406;-90
2021/03/19 07:45:46;;;;;;;33.33;19.00;;;;;;;1.78;99.80;96127.81;5046768;28;20446;-91
2021/03/19 07:48:39;;;;;;;32.30;22.60;;;;;;;2.01;100.00;96132.56;5046409;28;21066;-91
2021/03/19 07:51:19;;;;;;;29.53;19.03;;;;;;;2.19;99.24;96130.59;5045813;28;20459;-90
2021/03/19 07:54:00;;;;;;;30.03;19.60;;;;;;;2.02;98.74;96139.34;5048493;28;20459;-92
2021/03/19 07:56:38;;;;;;;35.10;20.70;;;;;;;2.02;99.17;96135.97;5048664;28;20509;-90
2021/03/19 07:59:14;;;;;;;34.43;21.03;;;;;;;2.13;99.56;96136.66;5048816;28;20499;-90
2021/03/19 08:01:47;;;;;;;32.97;20.07;;;;;;;2.37;99.29;96133.44;5060518;28;20423;-90
2021/03/19 08:04:24;;;;;;;30.83;19.20;;;;;;;2.39;99.04;96136.31;5060005;28;20452;-90
2021/03/19 08:06:54;;;;;;;32.47;20.13;;;;;;;2.63;97.72;96139.09;5053771;28;20554;-89
2021/03/19 08:09:34;;;;;;;32.03;18.70;;;;;;;2.57;97.55;96143.72;5047892;28;20511;-92
2021/03/19 08:12:05;;;;;;;37.47;20.30;;;;;;;2.57;97.35;96148.31;5047386;28;20442;-90
2021/03/19 08:15:04;;;;;;;27.97;17.50;;;;;;;2.36;97.48;96139.22;5046811;28;20419;-91
2021/03/19 08:17:49;;;;;;;26.37;17.27;;;;;;;2.11;98.77;96149.72;5002449;28;20512;-91
2021/03/19 08:20:32;;;;;;;33.80;19.70;;;;;;;2.27;99.17;96145.56;5044261;28;20557;-91
2021/03/19 08:23:02;;;;;;;38.07;20.50;;;;;;;2.12;99.34;96145.84;5047738;28;20428;-92
2021/03/19 08:25:34;;;;;;;30.97;19.43;;;;;;;2.29;100.00;96145.09;5052921;28;20834;-90
2021/03/19 08:28:07;;;;;;;27.73;16.70;;;;;;;2.27;99.06;96150.16;5045757;28;20478;-90
2021/03/19 08:30:45;;;;;;;24.60;13.97;;;;;;;2.35;99.26;96146.50;5043588;28;20566;-88
2021/03/19 08:33:22;;;;;;;20.03;12.80;;;;;;;2.29;98.71;96147.75;5046456;28;20502;-90
2021/03/19 08:35:58;;;;;;;23.40;15.10;;;;;;;2.26;98.74;96151.34;5043885;28;20510;-89
2021/03/19 08:38:29;;;;;;;21.50;14.10;;;;;;;2.34;98.50;96154.97;5043749;28;20481;-89
2021/03/19 08:40:59;;;;;;;22.10;12.67;;;;;;;2.07;98.91;96154.56;5042689;28;20521;-88
2021/03/19 08:43:30;;;;;;;19.20;12.20;;;;;;;2.02;98.48;96160.63;5034018;28;20471;-88
2021/03/19 08:46:00;;;;;;;20.20;12.90;;;;;;;1.97;99.75;96161.34;5043467;28;20444;-92
2021/03/19 08:48:28;;;;;;;22.80;14.80;;;;;;;2.15;100.00;96168.84;5025829;28;20964;-86
2021/03/19 08:50:54;;;;;;;22.27;13.63;;;;;;;2.02;100.00;96163.28;5024336;28;20456;-88
2021/03/19 08:53:23;;;;;;;22.33;13.40;;;;;;;2.08;100.00;96169.31;5042758;28;20471;-91
2021/03/19 08:55:51;;;;;;;24.87;14.40;;;;;;;2.15;100.00;96181.41;5046253;28;20443;-90
2021/03/19 08:58:47;;;;;;;24.97;15.20;;;;;;;2.31;100.00;96177.97;5045341;28;20489;-87
2021/03/19 09:01:29;;;;;;;26.23;15.47;;;;;;;2.44;99.52;96178.19;5041035;28;20527;-87
2021/03/19 09:03:58;;;;;;;24.57;13.67;;;;;;;2.31;99.14;96172.66;5041417;28;20475;-89
2021/03/19 09:06:28;;;;;;;25.70;13.60;;;;;;;2.36;99.95;96179.16;5042649;28;20417;-88
2021/03/19 09:09:24;;;;;;;24.83;15.27;;;;;;;2.33;99.73;96186.19;5042125;28;20499;-87
2021/03/19 09:12:16;;;;;;;30.37;13.40;;;;;;;2.28;99.87;96172.91;5042817;28;20478;-87
2021/03/19 09:15:21;;;;;;;23.10;13.90;;;;;;;2.16;99.60;96180.22;5034069;28;20450;-88
2021/03/19 09:17:53;;;;;;;23.73;13.37;;;;;;;1.97;100.00;96190.63;5037451;28;20474;-89
2021/03/19 09:21:00;;;;;;;28.30;14.97;;;;;;;1.96;100.00;96191.13;5043673;28;20577;-88
2021/03/19 09:23:49;;;;;;;23.70;13.70;;;;;;;2.04;100.00;96192.06;5026261;28;20454;-89
2021/03/19 09:26:50;;;;;;;24.23;14.37;;;;;;;2.02;100.00;96191.84;5041905;28;20423;-87
2021/03/19 09:29:35;;;;;;;23.73;14.00;;;;;;;1.90;100.00;96193.78;5031309;28;20455;-87
2021/03/19 09:32:36;;;;;;;24.80;15.13;;;;;;;2.00;100.00;96196.94;5040118;28;20427;-87
2021/03/19 09:35:33;;;;;;;26.67;16.30;;;;;;;2.02;100.00;96199.81;5041217;28;20451;-88
2021/03/19 09:38:01;;;;;;;23.87;14.43;;;;;;;1.96;100.00;96212.41;5042286;28;20810;-88
2021/03/19 09:40:52;;;;;;;22.73;15.13;;;;;;;2.01;99.97;96201.03;5047405;28;20513;-88
2021/03/19 09:43:38;;;;;;;29.23;15.70;;;;;;;1.92;100.00;96211.91;5043971;28;20497;-89
2021/03/19 09:46:14;;;;;;;28.40;16.53;;;;;;;2.18;99.88;96217.69;5043849;28;20566;-89
2021/03/19 09:48:56;;;;;;;22.50;14.97;;;;;;;2.17;97.97;96214.28;5049351;28;20483;-88
2021/03/19 09:51:40;;;;;;;28.10;16.53;;;;;;;2.15;98.92;96213.34;5054683;28;20495;-86
2021/03/19 09:54:31;;;;;;;26.53;15.90;;;;;;;2.17;98.24;96226.88;5050640;28;20454;-88
2021/03/19 09:57:04;;;;;;;24.20;16.17;;;;;;;2.28;99.30;96226.88;5048387;28;20975;-87
2021/03/19 09:59:34;;;;;;;24.33;15.60;;;;;;;2.24;98.80;96225.66;5042500;28;20475;-87
2021/03/19 10:02:01;;;;;;;22.03;14.23;;;;;;;2.37;98.53;96218.63;5041952;28;20435;-89
2021/03/19 10:04:31;;;;;;;22.50;14.00;;;;;;;2.46;98.13;96222.94;5042734;28;20455;-88
2021/03/19 10:06:58;;;;;;;25.43;14.60;;;;;;;2.70;97.41;96225.75;5043644;28;20518;-88
2021/03/19 10:09:27;;;;;;;24.97;13.90;;;;;;;3.02;97.00;96226.81;5042558;28;20511;-88
2021/03/19 10:11:57;;;;;;;17.20;12.07;;;;;;;3.10;93.48;96230.41;5044479;28;20432;-88
2021/03/19 10:14:28;;;;;;;19.20;12.00;;;;;;;2.93;92.70;96240.44;5041396;28;20470;-90
2021/03/19 10:17:18;;;;;;;18.67;10.77;;;;;;;2.92;91.57;96230.97;5047178;28;20471;-86
2021/03/19 10:19:49;;;;;;;15.33;11.07;;;;;;;3.18;91.44;96233.28;5050386;28;20449;-88
2021/03/19 10:22:36;;;;;;;17.00;12.00;;;;;;;3.14;90.57;96233.53;5042369;28;20510;-90
2021/03/19 10:25:21;;;;;;;16.00;10.43;;;;;;;3.17;90.74;96227.22;5046415;28;20534;-90
2021/03/19 10:27:48;;;;;;;19.30;12.03;;;;;;;3.36;89.52;96234.63;5044608;28;20819;-90
2021/03/19 10:30:19;;;;;;;16.57;11.23;;;;;;;3.54;86.72;96242.03;5041431;28;20402;-92
2021/03/19 10:32:46;;;;;;;14.60;9.40;;;;;;;3.78;85.40;96240.16;5039443;28;20525;-88
2021/03/19 10:35:19;;;;;;;14.80;10.10;;;;;;;3.76;84.74;96237.25;5044208;28;21021;-86
2021/03/19 10:37:53;;;;;;;16.60;10.30;;;;;;;3.67;85.31;96228.81;5041773;28;20590;-86
2021/03/19 10:40:33;;;;;;;16.33;10.67;;;;;;;3.52;85.45;96236.47;5056246;28;20497;-85
2021/03/19 10:43:11;;;;;;;14.90;10.37;;;;;;;3.37;88.23;96238.75;5055199;28;20470;-83
2021/03/19 10:45:46;;;;;;;20.80;10.10;;;;;;;3.33;89.70;96238.28;5052073;28;20418;-83
2021/03/19 10:48:22;;;;;;;16.40;10.93;;;;;;;3.29;89.26;96249.19;5045824;28;20477;-86
2021/03/19 10:51:00;;;;;;;16.03;10.57;;;;;;;3.49;90.03;96245.44;5044125;28;20427;-89
2021/03/19 10:53:38;;;;;;;15.33;9.37;;;;;;;3.16;90.52;96252.41;5041944;28;20498;-90
2021/03/19 10:56:06;;;;;;;14.50;9.70;;;;;;;2.85;92.53;96242.16;5042435;28;20464;-89
2021/03/19 10:58:35;;;;;;;15.67;10.33;;;;;;;2.72;94.21;96241.25;5042959;28;20467;-88
2021/03/19 11:01:03;;;;;;;14.40;9.33;;;;;;;2.66;94.46;96241.97;5051764;28;20471;-91
2021/03/19 11:03:43;;;;;;;18.60;10.47;;;;;;;2.57;95.81;96238.88;5048480;28;20479;-91
2021/03/19 11:06:12;;;;;;;16.00;10.13;;;;;;;2.67;94.55;96240.03;5045183;28;20443;-88
2021/03/19 11:08:39;;;;;;;14.77;9.10;;;;;;;2.76;94.63;96241.72;5042374;28;20874;-85
2021/03/19 11:11:06;;;;;;;14.50;8.70;;;;;;;2.56;94.49;96240.81;5041444;28;20655;-88
2021/03/19 11:13:35;;;;;;;15.80;8.30;;;;;;;2.50;94.75;96239.38;5040539;28;20464;-89
2021/03/19 11:16:04;;;;;;;14.70;9.50;;;;;;;2.53;95.52;96251.72;5041325;28;20419;-88
2021/03/19 11:18:35;;;;;;;12.83;8.53;;;;;;;2.47;96.42;96243.75;5040585;28;20469;-87
2021/03/19 11:21:24;;;;;;;13.33;8.00;;;;;;;2.37;95.60;96255.16;5039428;28;20475;-87
2021/03/19 11:24:04;;;;;;;18.37;10.23;;;;;;;2.33;96.41;96247.41;5038866;28;20984;-86
2021/03/19 11:26:33;;;;;;;14.73;8.33;;;;;;;2.27;94.95;96253.97;5038965;28;20470;-87
2021/03/19 11:29:19;;;;;;;14.70;9.63;;;;;;;2.35;95.14;96250.31;5037635;28;20595;-87
2021/03/19 11:31:57;;;;;;;13.20;7.23;;;;;;;2.42;94.59;96257.06;5037679;28;20435;-88
2021/03/19 11:34:33;;;;;;;10.77;7.30;;;;;;;2.25;93.95;96259.06;5038184;28;20544;-87
2021/03/19 11:37:02;;;;;;;11.30;7.30;;;;;;;2.25;94.82;96259.06;5037827;28;20487;-88
2021/03/19 11:39:57;;;;;;;19.97;11.23;;;;;;;2.24;93.64;96260.97;5039229;28;20453;-88
2021/03/19 11:42:26;;;;;;;11.00;7.13;;;;;;;2.28;92.74;96277.44;5012070;28;20516;-87
2021/03/19 11:44:55;;;;;;;9.17;6.20;;;;;;;2.27;93.10;96278.63;5042709;28;20454;-87
2021/03/19 11:47:25;;;;;;;8.53;5.97;;;;;;;2.22;92.59;96279.38;5042494;28;20505;-88
2021/03/19 11:49:57;;;;;;;10.80;7.13;;;;;;;2.17;91.87;96288.81;5041990;28;20507;-87
2021/03/19 11:52:23;;;;;;;9.87;6.80;;;;;;;2.27;90.22;96299.19;5041749;28;20510;-87
2021/03/19 11:54:49;;;;;;;10.70;6.30;;;;;;;2.12;90.66;96280.84;5042008;28;20467;-88
2021/03/19 11:57:17;;;;;;;12.40;8.33;;;;;;;2.35;92.03;96281.53;5042403;28;20477;-87
2021/03/19 11:59:44;;;;;;;9.50;6.70;;;;;;;2.40;89.74;96288.78;5041353;28;20502;-88
2021/03/19 12:02:24;;;;;;;10.87;7.63;;;;;;;2.45;89.93;96286.09;5042401;28;20446;-87